Time;durP1;ratioP1;P1;durP2;ratioP2;P2;SDS_P1;SDS_P2;PMS_P1;PMS_P2;Temp;Humidity;BMP_temperature;BMP_pressure;BME280_temperature;BME280_humidity;BME280_pressure;Samples;Min_cycle;Max_cycle;Signal;HPM_P1;HPM_P2
2022/08/03 00:01:15;;;;;;;5.03;2.75;;;;;;;20.63;84.47;100552.94;8281425;28;20034;-48
2022/08/03 00:05:15;;;;;;;5.82;2.92;;;;;;;20.57;84.88;100556.50;8291413;28;20057;-49
2022/08/03 00:09:16;;;;;;;3.47;2.63;;;;;;;20.50;85.43;100563.88;8320927;28;20033;-49
2022/08/03 00:13:18;;;;;;;5.20;3.10;;;;;;;20.44;85.55;100559.19;8322450;28;20037;-49
2022/08/03 00:17:19;;;;;;;3.65;3.00;;;;;;;20.37;86.57;100556.41;8326927;28;20041;-49
2022/08/03 00:21:19;;;;;;;9.30;3.20;;;;;;;20.44;86.38;100556.44;8326312;28;20040;-49
2022/08/03 00:25:19;;;;;;;6.72;3.60;;;;;;;20.31;86.79;100559.13;8325225;28;20038;-49
2022/08/03 00:29:20;;;;;;;5.13;3.20;;;;;;;20.20;87.54;100559.69;8325613;28;20053;-48
2022/08/03 00:33:21;;;;;;;7.03;3.80;;;;;;;20.30;87.27;100554.66;8323618;28;20395;-49
2022/08/03 00:37:21;;;;;;;3.60;3.30;;;;;;;20.32;86.79;100547.09;8317296;28;20040;-48
2022/08/03 00:41:22;;;;;;;4.60;3.55;;;;;;;20.26;87.50;100550.63;8319589;28;20033;-51
2022/08/03 00:45:25;;;;;;;6.93;3.53;;;;;;;20.16;88.17;100555.66;8322971;28;20037;-48
2022/08/03 00:49:26;;;;;;;7.40;3.08;;;;;;;20.07;88.61;100543.09;8323538;28;20112;-51
2022/08/03 00:53:27;;;;;;;7.10;3.25;;;;;;;20.06;88.68;100541.41;8315071;28;20117;-51
2022/08/03 00:57:30;;;;;;;4.35;3.60;;;;;;;20.04;89.01;100538.00;8318379;28;20494;-51
2022/08/03 01:01:31;;;;;;;5.80;3.65;;;;;;;19.93;89.45;100536.66;8322705;28;20421;-49
2022/08/03 01:05:39;;;;;;;5.53;3.30;;;;;;;19.89;89.93;100529.03;8324315;28;20040;-52
2022/08/03 01:10:01;;;;;;;5.38;3.45;;;;;;;19.74;90.80;100537.38;8324482;28;20351;-50
2022/08/03 01:14:14;;;;;;;5.63;3.40;;;;;;;19.90;90.01;100538.94;8323938;28;20041;-48
2022/08/03 01:18:24;;;;;;;4.90;3.53;;;;;;;19.82;90.32;100539.94;8323711;28;20045;-48
2022/08/03 01:22:39;;;;;;;4.40;4.00;;;;;;;19.83;90.34;100535.31;8324294;28;20490;-48
2022/08/03 01:27:01;;;;;;;4.05;3.72;;;;;;;19.77;90.71;100530.63;8321771;28;20065;-50
2022/08/03 01:31:07;;;;;;;7.47;3.80;;;;;;;19.79;90.49;100531.28;8318670;28;20065;-52
2022/08/03 01:35:12;;;;;;;4.00;3.60;;;;;;;19.78;90.90;100530.44;8323285;28;20040;-50
2022/08/03 01:39:14;;;;;;;5.40;3.40;;;;;;;19.75;90.68;100530.81;8321418;28;20502;-50
2022/08/03 01:43:18;;;;;;;4.45;3.95;;;;;;;19.69;91.26;100525.28;8316566;28;20117;-51
2022/08/03 01:47:22;;;;;;;4.00;3.40;;;;;;;19.67;91.23;100521.91;8322650;28;20048;-49
2022/08/03 01:51:23;;;;;;;4.18;3.78;;;;;;;19.67;91.31;100519.16;8321519;28;20280;-50
2022/08/03 01:55:27;;;;;;;5.85;4.47;;;;;;;19.65;91.59;100521.25;8323455;28;20241;-52
2022/08/03 01:59:29;;;;;;;4.85;3.78;;;;;;;19.61;91.90;100517.22;8318074;28;20033;-49
2022/08/03 02:03:32;;;;;;;6.15;4.18;;;;;;;19.62;91.59;100511.53;8321037;28;20086;-48
2022/08/03 02:07:34;;;;;;;4.82;3.95;;;;;;;19.58;92.08;100520.34;8321062;28;20041;-50
2022/08/03 02:11:36;;;;;;;8.02;4.18;;;;;;;19.43;92.85;100512.22;8321057;28;20497;-48
2022/08/03 02:15:37;;;;;;;5.22;4.25;;;;;;;19.48;92.92;100517.09;8308507;28;20037;-50
2022/08/03 02:19:38;;;;;;;4.72;4.32;;;;;;;19.54;92.38;100508.09;8312050;28;20037;-48
2022/08/03 02:23:39;;;;;;;6.80;3.97;;;;;;;19.44;93.03;100520.25;8301722;28;20037;-50
2022/08/03 02:27:47;;;;;;;6.05;4.30;;;;;;;19.42;93.06;100510.50;8315492;28;20048;-52
2022/08/03 02:31:49;;;;;;;6.97;4.20;;;;;;;19.45;93.00;100510.09;8312570;28;20316;-48
2022/08/03 02:35:51;;;;;;;7.43;4.47;;;;;;;19.44;92.88;100509.28;8316613;28;20128;-48
2022/08/03 02:39:56;;;;;;;5.55;4.10;;;;;;;19.36;93.35;100506.66;8322130;28;20033;-48
2022/08/03 02:44:00;;;;;;;4.18;3.78;;;;;;;19.37;93.34;100502.88;8322496;28;20029;-52
2022/08/03 02:48:04;;;;;;;4.57;3.90;;;;;;;19.36;93.50;100506.66;8321070;28;20402;-49
2022/08/03 02:52:09;;;;;;;8.90;4.60;;;;;;;19.43;93.45;100502.06;8321698;28;20280;-49
2022/08/03 02:56:10;;;;;;;5.97;4.40;;;;;;;19.44;93.11;100513.91;8321305;28;20034;-49
2022/08/03 03:00:11;;;;;;;5.00;3.67;;;;;;;19.37;93.32;100513.84;8320869;28;20029;-50
2022/08/03 03:04:12;;;;;;;5.38;4.40;;;;;;;19.35;93.53;100504.97;8312442;28;20041;-51
2022/08/03 03:08:15;;;;;;;6.90;4.45;;;;;;;19.31;93.69;100505.56;8314130;28;20049;-51
2022/08/03 03:12:16;;;;;;;4.45;4.05;;;;;;;19.28;93.87;100508.72;8313747;28;20457;-49
2022/08/03 03:16:18;;;;;;;7.10;4.63;;;;;;;19.25;94.02;100509.88;8310273;28;20040;-49
2022/08/03 03:20:20;;;;;;;4.30;3.83;;;;;;;19.15;94.72;100503.03;8319798;28;20033;-48
2022/08/03 03:24:20;;;;;;;4.65;3.70;;;;;;;19.12;94.70;100509.78;8320582;28;20084;-52
2022/08/03 03:28:22;;;;;;;5.82;4.38;;;;;;;18.96;96.03;100509.16;8321179;28;20037;-52
2022/08/03 03:32:25;;;;;;;6.93;4.40;;;;;;;18.97;95.91;100517.19;8320884;28;20033;-49
2022/08/03 03:36:25;;;;;;;7.78;4.40;;;;;;;18.95;96.16;100502.00;8321124;28;20030;-50
2022/08/03 03:40:26;;;;;;;7.15;3.90;;;;;;;18.96;95.63;100507.28;8320398;28;20040;-51
2022/08/03 03:44:28;;;;;;;4.82;3.90;;;;;;;18.83;96.58;100504.41;8321376;28;20030;-50
2022/08/03 03:48:51;;;;;;;4.97;4.05;;;;;;;18.86;96.70;100509.50;8324611;28;20041;-48
2022/08/03 03:52:51;;;;;;;6.70;4.05;;;;;;;18.85;96.35;100507.78;8327460;28;20090;-48
2022/08/03 03:56:52;;;;;;;6.78;4.10;;;;;;;18.81;96.49;100509.22;8326922;28;20034;-48
2022/08/03 04:00:52;;;;;;;4.87;4.17;;;;;;;18.92;95.79;100516.09;8326915;28;20087;-50
2022/08/03 04:13:41;;;;;;;9.52;3.72;;;;;;;18.96;95.71;100515.50;8322992;28;20025;-48
2022/08/03 04:17:43;;;;;;;6.80;4.00;;;;;;;18.96;95.60;100518.25;8324905;28;20036;-50
2022/08/03 04:21:48;;;;;;;7.90;4.40;;;;;;;19.04;95.11;100522.75;8326040;28;20041;-49
2022/08/03 04:25:50;;;;;;;5.57;4.28;;;;;;;18.99;95.60;100520.59;8318913;28;20073;-49
2022/08/03 04:29:53;;;;;;;6.15;3.92;;;;;;;19.09;94.96;100520.28;8326164;28;20116;-49
2022/08/03 04:33:54;;;;;;;5.95;3.85;;;;;;;19.14;95.02;100529.63;8317316;28;20036;-48
2022/08/03 04:38:00;;;;;;;6.65;4.15;;;;;;;19.20;93.75;100534.31;8325155;28;20041;-50
2022/08/03 04:42:05;;;;;;;6.28;4.18;;;;;;;19.22;93.69;100537.69;8312635;28;20041;-49
2022/08/03 04:46:07;;;;;;;5.78;4.22;;;;;;;19.28;93.72;100531.47;8324279;28;20095;-51
2022/08/03 04:50:08;;;;;;;4.43;3.90;;;;;;;19.39;93.07;100532.84;8325105;28;20044;-49
2022/08/03 04:54:13;;;;;;;6.82;4.32;;;;;;;19.58;92.34;100525.84;8320721;28;20041;-51
2022/08/03 04:58:13;;;;;;;4.30;3.72;;;;;;;19.87;90.51;100531.97;8309232;28;20044;-48
2022/08/03 05:02:14;;;;;;;5.10;4.30;;;;;;;19.83;90.39;100529.84;8321090;28;20042;-50
2022/08/03 05:06:16;;;;;;;7.22;3.95;;;;;;;19.86;90.12;100529.44;8324725;28;20402;-48
2022/08/03 05:10:17;;;;;;;8.43;4.13;;;;;;;19.97;89.49;100535.22;8323986;28;20051;-51
2022/08/03 05:14:17;;;;;;;5.68;4.53;;;;;;;20.08;89.02;100529.16;8321399;28;20041;-49
2022/08/03 05:18:17;;;;;;;4.43;3.80;;;;;;;20.32;88.46;100536.09;8323294;28;20046;-50
2022/08/03 05:22:18;;;;;;;4.93;3.60;;;;;;;20.34;88.03;100534.84;8324161;28;20033;-51
2022/08/03 05:26:19;;;;;;;4.20;3.80;;;;;;;20.63;87.31;100547.47;8323119;28;20773;-48
2022/08/03 05:30:20;;;;;;;7.60;3.70;;;;;;;20.62;87.15;100543.03;8319790;28;20406;-50
2022/08/03 05:34:20;;;;;;;10.63;4.53;;;;;;;20.82;86.59;100538.44;8323612;28;20044;-49
2022/08/03 05:38:21;;;;;;;4.70;3.38;;;;;;;21.13;85.34;100536.00;8324094;28;20037;-50
2022/08/03 05:42:21;;;;;;;4.53;3.72;;;;;;;21.42;84.74;100538.41;8317766;28;20119;-50
2022/08/03 05:46:22;;;;;;;5.60;3.63;;;;;;;21.62;83.54;100531.00;8309156;28;20053;-51
2022/08/03 05:50:22;;;;;;;5.90;3.55;;;;;;;21.71;83.24;100535.22;8318474;28;20462;-48
2022/08/03 05:54:23;;;;;;;4.63;3.07;;;;;;;21.61;83.69;100534.81;8312644;28;20036;-48
2022/08/03 05:58:23;;;;;;;4.28;3.80;;;;;;;22.11;82.37;100542.44;8319983;28;20760;-49
2022/08/03 06:02:25;;;;;;;5.03;3.07;;;;;;;22.63;80.45;100550.59;8323372;28;20127;-48
2022/08/03 06:06:26;;;;;;;6.32;3.40;;;;;;;22.99;78.99;100548.09;8322257;28;20338;-49
2022/08/03 06:10:26;;;;;;;12.07;3.47;;;;;;;23.21;78.25;100546.69;8322580;28;20233;-48
2022/08/03 06:14:27;;;;;;;9.48;3.25;;;;;;;23.47;77.90;100553.13;8321401;28;20108;-50
2022/08/03 06:18:27;;;;;;;5.67;3.47;;;;;;;23.39;76.97;100554.25;8322383;28;20041;-49
2022/08/03 06:22:27;;;;;;;7.65;3.00;;;;;;;23.45;76.85;100552.53;8292918;28;20285;-50
2022/08/03 06:26:28;;;;;;;9.13;3.13;;;;;;;23.80;76.74;100554.59;8289792;28;20073;-49
2022/08/03 06:30:28;;;;;;;6.90;3.50;;;;;;;24.08;75.79;100554.13;8279912;28;20574;-51
2022/08/03 06:34:29;;;;;;;7.75;3.03;;;;;;;24.58;73.95;100556.56;8281650;28;20045;-49
2022/08/03 06:38:29;;;;;;;8.17;2.93;;;;;;;24.76;73.33;100555.75;8280978;28;20392;-52
2022/08/03 06:42:29;;;;;;;6.28;2.58;;;;;;;25.07;72.50;100550.03;8284605;28;20757;-49
2022/08/03 06:46:30;;;;;;;8.57;2.72;;;;;;;25.41;70.66;100552.13;8289679;28;20067;-49
2022/08/03 06:50:31;;;;;;;9.83;3.10;;;;;;;25.59;69.71;100549.28;8320214;28;20037;-49
2022/08/03 06:54:31;;;;;;;9.88;3.28;;;;;;;25.87;69.01;100552.22;8321885;28;20303;-49
2022/08/03 06:58:32;;;;;;;7.47;2.83;;;;;;;26.25;68.45;100547.09;8320449;28;20033;-49
2022/08/03 07:02:33;;;;;;;7.88;2.33;;;;;;;26.31;67.12;100546.13;8321467;28;20116;-49
2022/08/03 07:06:33;;;;;;;8.88;2.28;;;;;;;26.92;65.77;100545.53;8306195;28;20034;-49
2022/08/03 07:10:34;;;;;;;10.32;2.45;;;;;;;27.02;66.17;100556.03;8289203;28;20049;-51
2022/08/03 07:14:34;;;;;;;8.00;2.47;;;;;;;27.45;64.80;100554.44;8280112;28;20146;-48
2022/08/03 07:18:38;;;;;;;6.53;2.25;;;;;;;27.78;64.14;100556.41;8287174;28;20046;-48
2022/08/03 07:22:38;;;;;;;5.47;2.08;;;;;;;27.77;63.68;100560.25;8292632;28;20064;-49
2022/08/03 07:26:39;;;;;;;10.83;1.67;;;;;;;27.69;63.97;100557.91;8286289;28;20049;-49
2022/08/03 07:30:39;;;;;;;8.10;1.73;;;;;;;27.70;64.02;100560.44;8290971;28;20760;-51
2022/08/03 07:34:40;;;;;;;13.73;2.05;;;;;;;28.44;61.97;100564.72;8295644;28;20402;-49
2022/08/03 07:38:40;;;;;;;9.07;2.10;;;;;;;28.68;60.28;100560.66;8294188;28;20047;-49
2022/08/03 07:42:40;;;;;;;8.68;1.88;;;;;;;28.44;60.57;100565.56;8294777;28;20037;-50
2022/08/03 07:46:41;;;;;;;7.47;2.03;;;;;;;28.81;59.85;100557.47;8291932;28;20048;-51
2022/08/03 07:50:41;;;;;;;6.30;1.57;;;;;;;29.33;59.36;100549.53;8288763;28;20272;-49
2022/08/03 07:54:42;;;;;;;4.55;1.50;;;;;;;29.32;59.00;100547.81;8294537;28;20269;-51
2022/08/03 07:58:42;;;;;;;3.85;1.80;;;;;;;29.39;59.09;100549.28;8278415;28;20057;-51
2022/08/03 08:02:44;;;;;;;7.60;1.90;;;;;;;29.53;57.32;100549.72;8290718;28;20071;-53
2022/08/03 08:06:44;;;;;;;7.65;1.65;;;;;;;30.01;56.40;100553.25;8298051;28;20290;-49
2022/08/03 08:10:45;;;;;;;6.70;1.53;;;;;;;30.04;56.06;100557.47;8273769;28;20085;-49
2022/08/03 08:14:46;;;;;;;7.68;1.85;;;;;;;30.40;55.20;100557.47;8294396;28;20273;-51
2022/08/03 08:18:46;;;;;;;4.30;1.30;;;;;;;30.23;55.67;100550.38;8278726;28;20076;-49
2022/08/03 08:22:47;;;;;;;4.50;1.37;;;;;;;30.23;55.42;100550.38;8287286;28;20046;-53
2022/08/03 08:26:47;;;;;;;3.05;1.40;;;;;;;30.43;55.39;100551.34;8292902;28;20064;-50
2022/08/03 08:30:48;;;;;;;8.00;1.90;;;;;;;30.28;55.26;100548.47;8286381;28;20053;-50
2022/08/03 08:34:48;;;;;;;3.03;1.60;;;;;;;30.62;54.40;100553.69;8289804;28;20269;-50
2022/08/03 08:38:48;;;;;;;8.50;1.80;;;;;;;30.84;54.57;100551.59;8278929;28;20061;-50
2022/08/03 08:42:49;;;;;;;11.82;1.83;;;;;;;30.88;53.80;100547.16;8284360;28;20041;-51
2022/08/03 08:46:52;;;;;;;3.90;1.50;;;;;;;30.99;53.69;100552.53;8291907;28;20049;-51
2022/08/03 08:50:54;;;;;;;4.97;1.40;;;;;;;31.53;52.90;100545.44;8284870;28;20671;-51
2022/08/03 08:54:58;;;;;;;5.70;1.25;;;;;;;31.53;53.08;100544.59;8278543;28;20414;-52
2022/08/03 08:59:00;;;;;;;9.07;2.00;;;;;;;31.58;53.09;100541.81;8282730;28;20428;-50
2022/08/03 09:03:00;;;;;;;2.65;1.33;;;;;;;31.48;51.48;100544.59;8276394;28;20042;-52
2022/08/03 09:07:01;;;;;;;1.40;1.08;;;;;;;31.90;51.97;100545.22;8283729;28;20413;-51
2022/08/03 09:11:02;;;;;;;6.10;1.85;;;;;;;32.09;50.47;100549.13;8290829;28;20383;-50
2022/08/03 09:15:30;;;;;;;2.33;1.02;;;;;;;32.53;50.86;100539.00;8281746;28;20400;-50
2022/08/03 09:19:32;;;;;;;4.45;1.58;;;;;;;32.18;50.53;100542.69;8286199;28;20029;-52
2022/08/03 09:23:53;;;;;;;3.88;1.60;;;;;;;32.73;50.97;100549.31;8294546;28;20033;-50
2022/08/03 09:27:54;;;;;;;7.00;1.27;;;;;;;32.43;49.59;100549.38;8283785;28;20522;-54
2022/08/03 09:32:01;;;;;;;6.20;1.40;;;;;;;32.38;49.46;100541.84;8288278;28;20451;-51
2022/08/03 09:36:02;;;;;;;5.75;1.58;;;;;;;32.31;49.56;100546.88;8287104;28;20107;-52
2022/08/03 09:40:04;;;;;;;4.22;1.40;;;;;;;32.47;49.47;100540.13;8287225;28;20092;-51
2022/08/03 09:44:04;;;;;;;3.33;1.10;;;;;;;33.10;48.50;100536.59;8287315;28;20042;-53
2022/08/03 09:48:22;;;;;;;8.10;1.30;;;;;;;33.47;48.24;100536.09;8282024;28;20136;-53
2022/08/03 09:52:33;;;;;;;2.78;1.30;;;;;;;33.81;47.86;100525.75;8313012;28;20036;-54
2022/08/03 09:56:39;;;;;;;4.45;1.10;;;;;;;34.80;46.13;100533.50;8323251;28;20120;-52
2022/08/03 10:01:02;;;;;;;3.97;1.27;;;;;;;36.52;43.12;100537.06;8320147;28;20040;-50
2022/08/03 10:05:03;;;;;;;5.22;1.10;;;;;;;38.10;41.05;100539.78;8323054;28;20038;-53
2022/08/03 10:13:17;;;;;;;4.82;1.05;;;;;;;39.00;38.92;100531.66;8395564;27;20401;-53
2022/08/03 10:17:20;;;;;;;4.38;1.30;;;;;;;38.71;39.38;100523.69;8380597;28;20039;-49
2022/08/03 10:21:21;;;;;;;2.45;0.82;;;;;;;40.30;38.33;100527.41;8387018;28;20041;-51
2022/08/03 10:25:21;;;;;;;5.70;1.10;;;;;;;40.02;37.88;100526.13;8382080;28;20048;-49
2022/08/03 10:29:27;;;;;;;6.85;1.08;;;;;;;37.58;40.80;100517.88;8379204;28;20040;-53
2022/08/03 10:33:33;;;;;;;3.97;0.90;;;;;;;37.78;40.49;100512.63;8380734;28;20036;-51
2022/08/03 10:37:41;;;;;;;3.97;1.25;;;;;;;38.11;39.92;100501.91;8380015;28;20511;-52
2022/08/03 10:41:45;;;;;;;5.68;0.90;;;;;;;37.99;40.07;100501.63;8367087;28;20044;-52
2022/08/03 10:45:45;;;;;;;2.35;1.00;;;;;;;36.90;40.99;100499.09;8372751;28;20127;-52
2022/08/03 10:49:48;;;;;;;7.32;1.27;;;;;;;35.90;42.70;100500.19;8374142;28;20037;-53
2022/08/03 10:53:48;;;;;;;2.33;0.80;;;;;;;36.94;41.17;100479.56;8376960;28;20040;-53
2022/08/03 10:57:52;;;;;;;3.67;0.93;;;;;;;38.17;38.94;100483.69;8379552;28;20066;-50
2022/08/03 11:01:55;;;;;;;3.45;0.90;;;;;;;37.37;40.15;100481.69;8378158;28;20063;-51
2022/08/03 11:06:17;;;;;;;10.07;1.00;;;;;;;38.60;38.74;100474.25;8377629;28;20041;-51
2022/08/03 11:10:34;;;;;;;5.22;1.10;;;;;;;40.57;36.54;100470.28;8376233;28;20048;-53
2022/08/03 11:14:47;;;;;;;3.67;0.90;;;;;;;41.07;36.31;100470.41;8377177;28;20047;-52
2022/08/03 11:18:56;;;;;;;3.28;1.13;;;;;;;41.50;35.32;100470.09;8366684;28;20037;-50
2022/08/03 11:22:59;;;;;;;4.13;1.00;;;;;;;40.21;36.58;100475.56;8364500;28;20033;-50
2022/08/03 11:27:22;;;;;;;5.75;1.35;;;;;;;41.83;34.58;100459.56;8356412;28;20048;-52
2022/08/03 11:31:28;;;;;;;5.53;1.17;;;;;;;41.40;35.03;100453.44;8355794;28;20036;-53
2022/08/03 11:35:34;;;;;;;4.35;1.35;;;;;;;40.27;36.36;100454.38;8349835;28;20474;-52
2022/08/03 11:39:45;;;;;;;4.10;1.00;;;;;;;41.16;36.02;100456.13;8355225;28;20472;-51
2022/08/03 11:43:45;;;;;;;4.30;0.70;;;;;;;42.21;34.91;100471.56;8354490;28;20037;-52
2022/08/03 11:47:48;;;;;;;4.32;0.93;;;;;;;42.98;34.23;100460.03;8354647;28;20165;-53
2022/08/03 11:51:52;;;;;;;1.92;0.82;;;;;;;42.79;33.64;100456.97;8351335;28;20267;-52
2022/08/03 11:55:53;;;;;;;2.30;0.93;;;;;;;41.61;34.79;100449.41;8353053;28;20327;-50
2022/08/03 11:59:53;;;;;;;2.33;0.90;;;;;;;41.43;34.97;100452.75;8353091;28;20036;-54
2022/08/03 12:03:54;;;;;;;1.75;1.13;;;;;;;41.25;34.97;100451.22;8353205;28;20340;-52
2022/08/03 12:07:54;;;;;;;3.65;0.85;;;;;;;40.79;35.88;100455.00;8352963;28;20037;-50
2022/08/03 12:11:54;;;;;;;12.03;1.30;;;;;;;38.47;38.58;100443.22;8377132;28;20048;-50
2022/08/03 12:15:57;;;;;;;2.78;1.10;;;;;;;36.24;41.23;100445.19;8354833;28;20091;-52
2022/08/03 12:19:58;;;;;;;4.53;1.20;;;;;;;35.48;42.19;100436.41;8353328;28;20120;-49
2022/08/03 12:24:01;;;;;;;2.25;0.88;;;;;;;35.54;42.15;100432.38;8354345;28;20033;-53
2022/08/03 12:28:21;;;;;;;1.60;0.90;;;;;;;36.23;41.51;100437.91;8354095;28;20036;-49
2022/08/03 12:32:24;;;;;;;5.53;0.70;;;;;;;35.91;42.04;100429.50;8353999;28;20041;-50
2022/08/03 12:36:26;;;;;;;3.25;0.98;;;;;;;35.19;42.60;100428.13;8353395;28;20128;-53
2022/08/03 12:40:26;;;;;;;6.68;1.30;;;;;;;34.43;43.21;100429.47;8352719;28;20083;-52
2022/08/03 12:44:31;;;;;;;4.13;0.90;;;;;;;34.03;44.14;100419.53;8352535;28;20033;-50
2022/08/03 12:48:31;;;;;;;7.45;1.08;;;;;;;34.08;44.25;100421.41;8352446;28;20110;-50
2022/08/03 12:52:43;;;;;;;3.88;0.93;;;;;;;34.46;44.17;100417.63;8352121;28;20049;-51
2022/08/03 12:57:05;;;;;;;3.50;1.10;;;;;;;34.19;43.53;100422.97;8351579;28;20229;-50
2022/08/03 13:01:07;;;;;;;3.67;1.17;;;;;;;34.17;43.62;100430.84;8351539;28;20051;-52
2022/08/03 13:05:12;;;;;;;2.65;0.88;;;;;;;34.05;43.61;100422.84;8352381;28;20039;-51
2022/08/03 13:09:13;;;;;;;4.50;1.20;;;;;;;34.00;44.54;100413.66;8344468;28;20441;-50
2022/08/03 13:13:14;;;;;;;1.63;0.93;;;;;;;34.40;44.23;100413.22;8352228;28;20397;-50
2022/08/03 13:17:15;;;;;;;4.05;0.80;;;;;;;34.92;43.31;100404.66;8350054;28;20106;-53
2022/08/03 13:21:16;;;;;;;3.97;1.13;;;;;;;33.81;44.06;100405.94;8341808;28;20536;-50
2022/08/03 13:25:17;;;;;;;4.60;1.23;;;;;;;34.13;44.55;100401.72;8350611;28;20413;-50
2022/08/03 13:29:17;;;;;;;3.65;1.17;;;;;;;34.18;44.32;100399.66;8351994;28;20044;-51
2022/08/03 13:33:18;;;;;;;3.10;1.20;;;;;;;34.74;43.96;100403.47;8351707;28;20036;-50
2022/08/03 13:37:18;;;;;;;2.60;1.15;;;;;;;35.03;43.46;100398.56;8351290;28;20480;-50
2022/08/03 13:41:19;;;;;;;6.68;1.20;;;;;;;34.22;43.14;100395.16;8352074;28;20437;-51
2022/08/03 13:45:19;;;;;;;2.47;1.10;;;;;;;34.79;42.75;100399.78;8344857;28;20028;-50
2022/08/03 13:49:20;;;;;;;3.10;1.00;;;;;;;34.37;43.40;100397.81;8351039;28;20440;-50
2022/08/03 13:53:20;;;;;;;3.42;1.02;;;;;;;34.07;43.85;100386.06;8349112;28;20123;-50
2022/08/03 13:57:21;;;;;;;4.13;0.80;;;;;;;34.72;43.76;100382.44;8348493;28;20508;-49
2022/08/03 14:01:21;;;;;;;2.35;0.80;;;;;;;34.52;43.38;100382.72;8348970;28;20501;-50
2022/08/03 14:05:22;;;;;;;3.63;1.20;;;;;;;34.65;43.15;100379.16;8350257;28;20102;-49
2022/08/03 14:09:22;;;;;;;2.90;0.80;;;;;;;34.80;42.94;100384.56;8345806;28;20064;-50
2022/08/03 14:13:23;;;;;;;2.37;0.80;;;;;;;34.45;43.29;100376.66;8349619;28;20033;-49
2022/08/03 14:17:24;;;;;;;2.72;0.85;;;;;;;34.43;43.37;100373.28;8349667;28;20064;-52
2022/08/03 14:21:24;;;;;;;2.33;1.20;;;;;;;34.47;43.85;100363.13;8349907;28;20033;-52
2022/08/03 14:25:25;;;;;;;2.27;0.80;;;;;;;34.18;44.13;100365.16;8345739;28;20061;-53
2022/08/03 14:29:25;;;;;;;4.30;1.00;;;;;;;34.09;43.60;100352.91;8347880;28;20044;-50
2022/08/03 14:33:27;;;;;;;10.07;1.15;;;;;;;34.02;43.63;100355.25;8347069;28;20056;-53
2022/08/03 14:37:27;;;;;;;2.72;1.00;;;;;;;34.26;43.70;100351.28;8349485;28;20056;-50
2022/08/03 14:41:28;;;;;;;5.63;1.35;;;;;;;34.11;43.96;100342.22;8349275;28;20033;-53
2022/08/03 14:45:28;;;;;;;6.70;1.02;;;;;;;34.26;43.52;100339.22;8349770;28;20492;-54
2022/08/03 14:49:29;;;;;;;8.27;1.20;;;;;;;33.98;43.90;100338.16;8338941;28;20048;-52
2022/08/03 14:53:29;;;;;;;5.07;1.05;;;;;;;33.83;44.30;100330.75;8333346;28;20261;-50
2022/08/03 14:57:30;;;;;;;5.53;1.40;;;;;;;34.21;43.92;100339.28;8340729;28;20536;-50
2022/08/03 15:01:30;;;;;;;6.83;1.50;;;;;;;34.52;43.96;100335.81;8350470;28;20041;-51
2022/08/03 15:05:31;;;;;;;5.15;1.23;;;;;;;34.74;43.81;100330.44;8355988;28;20822;-51
2022/08/03 15:09:31;;;;;;;5.88;1.13;;;;;;;34.52;44.02;100326.53;8354966;28;20040;-52
2022/08/03 15:13:32;;;;;;;3.42;1.23;;;;;;;34.31;43.93;100317.53;8354953;28;20493;-51
2022/08/03 15:17:32;;;;;;;3.38;1.00;;;;;;;34.63;43.70;100314.00;8347974;28;20505;-50
2022/08/03 15:21:32;;;;;;;7.30;1.35;;;;;;;34.49;42.99;100310.28;8350502;28;20048;-50
2022/08/03 15:25:33;;;;;;;2.72;1.33;;;;;;;34.07;43.85;100299.03;8353546;28;20489;-51
2022/08/03 15:29:34;;;;;;;4.32;1.00;;;;;;;33.95;43.93;100299.47;8351467;28;20040;-50
2022/08/03 15:33:34;;;;;;;5.38;1.10;;;;;;;34.10;44.16;100293.66;8354544;28;20454;-53
2022/08/03 15:37:34;;;;;;;5.68;0.98;;;;;;;33.99;44.14;100294.13;8349242;28;20041;-49
2022/08/03 15:41:35;;;;;;;3.78;1.10;;;;;;;34.29;43.96;100293.69;8350698;28;20044;-52
2022/08/03 15:45:36;;;;;;;3.38;1.05;;;;;;;34.46;43.94;100288.44;8348914;28;20098;-50
2022/08/03 15:49:36;;;;;;;4.03;0.70;;;;;;;34.32;44.01;100293.09;8343633;28;20615;-50
2022/08/03 15:53:37;;;;;;;2.85;0.90;;;;;;;34.34;43.49;100285.19;8346858;28;20496;-50
2022/08/03 15:57:37;;;;;;;6.00;1.17;;;;;;;34.18;43.59;100286.56;8349374;28;20454;-50
2022/08/03 16:01:38;;;;;;;2.80;0.80;;;;;;;34.23;43.51;100284.50;8348379;28;20537;-49
2022/08/03 16:05:39;;;;;;;5.72;1.15;;;;;;;34.13;43.95;100283.81;8345906;28;20032;-49
2022/08/03 16:09:41;;;;;;;3.25;0.90;;;;;;;34.38;44.07;100280.69;8346430;28;20183;-50
2022/08/03 16:13:41;;;;;;;2.17;0.70;;;;;;;34.58;43.69;100281.19;8366509;28;20033;-49
2022/08/03 16:17:42;;;;;;;3.97;1.07;;;;;;;34.23;43.70;100278.03;8347715;28;20091;-50
2022/08/03 16:21:42;;;;;;;2.83;1.70;;;;;;;34.26;43.23;100278.28;8350941;28;20287;-51
2022/08/03 16:25:44;;;;;;;1.77;0.80;;;;;;;34.49;43.48;100287.81;8351521;28;20072;-49
2022/08/03 16:29:44;;;;;;;1.52;0.73;;;;;;;34.17;43.52;100276.44;8349714;28;20313;-50
2022/08/03 16:33:44;;;;;;;2.90;1.00;;;;;;;34.10;43.02;100271.22;8351740;28;20179;-53
2022/08/03 16:37:45;;;;;;;3.47;0.60;;;;;;;34.02;43.33;100271.88;8351345;28;20276;-49
2022/08/03 16:41:45;;;;;;;4.97;1.33;;;;;;;33.98;44.14;100270.81;8351030;28;20048;-53
2022/08/03 16:45:47;;;;;;;7.10;0.73;;;;;;;34.05;43.60;100276.88;8352562;28;20037;-50
2022/08/03 16:49:47;;;;;;;4.93;0.60;;;;;;;34.17;43.77;100279.25;8351701;28;20484;-53
2022/08/03 16:53:48;;;;;;;5.63;0.60;;;;;;;34.11;44.76;100270.06;8353935;28;20428;-53
2022/08/03 16:57:48;;;;;;;2.13;0.80;;;;;;;33.88;43.65;100268.16;8352810;28;20037;-51
2022/08/03 17:01:49;;;;;;;7.10;0.90;;;;;;;33.84;43.41;100270.66;8352874;28;20724;-51
2022/08/03 17:05:49;;;;;;;1.70;0.75;;;;;;;33.84;43.80;100270.66;8352107;28;20272;-50
2022/08/03 17:09:50;;;;;;;8.43;1.08;;;;;;;33.90;43.79;100269.50;8352769;28;20040;-49
2022/08/03 17:13:50;;;;;;;3.42;0.60;;;;;;;33.70;43.65;100269.72;8348131;28;20043;-50
2022/08/03 17:18:04;;;;;;;2.30;0.60;;;;;;;33.75;44.13;100272.47;8349699;28;20056;-49
2022/08/03 17:22:12;;;;;;;;;;;;;;;33.61;43.72;100271.50;8348319;28;20025;-50
2022/08/03 17:26:14;;;;;;;6.85;0.70;;;;;;;33.56;43.76;100268.75;8349965;28;20011;-53
2022/08/03 17:30:16;;;;;;;4.43;0.70;;;;;;;33.48;43.83;100266.59;8350249;28;20520;-53
2022/08/03 17:34:18;;;;;;;2.47;0.60;;;;;;;33.41;44.19;100260.50;8346424;28;20039;-52
2022/08/03 17:38:18;;;;;;;2.17;0.60;;;;;;;33.29;43.51;100268.47;8349122;28;20532;-50
2022/08/03 17:42:20;;;;;;;2.08;0.70;;;;;;;33.20;44.20;100260.97;8349988;28;20445;-54
2022/08/03 17:46:22;;;;;;;3.17;0.60;;;;;;;33.04;44.12;100262.25;8350855;28;20029;-51
2022/08/03 17:50:23;;;;;;;1.52;0.70;;;;;;;33.02;44.60;100262.53;8350328;28;20083;-52
2022/08/03 17:54:34;;;;;;;1.23;0.60;;;;;;;33.02;44.63;100259.75;8341096;28;20049;-53
2022/08/03 17:58:51;;;;;;;0.95;0.50;;;;;;;33.00;44.64;100269.59;8340312;28;20421;-49
2022/08/03 18:07:21;;;;;;;5.45;0.60;;;;;;;32.86;45.23;100263.81;8340329;27;20485;-50
2022/08/03 18:11:24;;;;;;;1.08;0.60;;;;;;;32.77;45.64;100265.53;8317538;28;20029;-51
2022/08/03 18:15:29;;;;;;;3.75;0.70;;;;;;;32.74;45.71;100268.91;8312114;28;20413;-50
2022/08/03 18:19:34;;;;;;;2.38;0.65;;;;;;;32.68;44.73;100272.88;8311133;28;20553;-51
2022/08/03 18:23:36;;;;;;;7.18;0.93;;;;;;;32.60;45.30;100264.28;8310442;28;20049;-49
2022/08/03 18:27:38;;;;;;;1.95;0.70;;;;;;;32.48;45.34;100270.25;8303915;28;20128;-50
2022/08/03 18:31:41;;;;;;;2.42;0.63;;;;;;;32.39;45.52;100269.19;8291885;28;20414;-49
2022/08/03 18:35:43;;;;;;;2.00;0.50;;;;;;;32.30;45.81;100273.69;8303606;28;20042;-49
2022/08/03 18:39:45;;;;;;;4.35;0.88;;;;;;;32.16;46.12;100269.84;8312804;28;20064;-50
2022/08/03 18:43:47;;;;;;;2.78;0.57;;;;;;;31.98;47.01;100268.53;8312622;28;20037;-49
2022/08/03 18:52:04;;;;;;;8.10;1.00;;;;;;;31.66;47.26;100270.03;8408036;27;20477;-50
2022/08/03 18:56:12;;;;;;;3.55;0.60;;;;;;;31.50;48.00;100276.78;8359659;28;20037;-49
2022/08/03 19:00:15;;;;;;;5.15;1.00;;;;;;;31.38;48.47;100273.47;8372988;28;20337;-49
2022/08/03 19:04:31;;;;;;;2.97;0.93;;;;;;;31.27;48.23;100266.16;8372310;28;20120;-52
2022/08/03 19:09:01;;;;;;;2.67;0.55;;;;;;;31.18;48.84;100273.44;8340883;28;20037;-50